createdAt,value
2023-03-07T00:00:57.162Z,16.05
2023-03-07T00:01:57.155Z,16.07
2023-03-07T00:02:57.188Z,16.08
2023-03-07T00:03:57.185Z,16.07
2023-03-07T00:04:57.122Z,16.07
2023-03-07T00:05:57.107Z,16.07
2023-03-07T00:06:57.098Z,16.07
2023-03-07T00:07:57.108Z,16.07
2023-03-07T00:08:57.094Z,16.07
2023-03-07T00:09:57.086Z,16.08
2023-03-07T00:10:57.054Z,16.07
2023-03-07T00:11:57.042Z,16.05
2023-03-07T00:12:57.054Z,16.05
2023-03-07T00:13:57.043Z,16.08
2023-03-07T00:14:57.047Z,16.05
2023-03-07T00:15:57.049Z,16.05
2023-03-07T00:16:57.014Z,16.05
2023-03-07T00:17:56.984Z,16.05
2023-03-07T00:18:57.007Z,16.07
2023-03-07T00:19:56.959Z,16.05
2023-03-07T00:20:56.945Z,16.05
2023-03-07T00:21:56.968Z,16.07
2023-03-07T00:22:56.927Z,16.05
2023-03-07T00:23:56.916Z,16.05
2023-03-07T00:24:56.911Z,16.05
2023-03-07T00:25:56.892Z,16.04
2023-03-07T00:26:56.883Z,16.05
2023-03-07T00:27:56.897Z,16.04
2023-03-07T00:28:56.869Z,16.04
2023-03-07T00:29:56.861Z,16.05
2023-03-07T00:30:56.864Z,16.05
2023-03-07T00:31:56.832Z,16.05
2023-03-07T00:32:56.841Z,16.05
2023-03-07T00:33:56.830Z,16.05
2023-03-07T00:34:56.798Z,16.04
2023-03-07T00:35:56.838Z,16.04
2023-03-07T00:36:56.779Z,16.05
2023-03-07T00:37:56.765Z,16.05
2023-03-07T00:38:56.753Z,16.04
2023-03-07T00:39:56.776Z,16.04
2023-03-07T00:40:56.765Z,16.05
2023-03-07T00:41:56.723Z,16.04
2023-03-07T00:42:56.710Z,16.02
2023-03-07T00:43:56.710Z,16.04
2023-03-07T00:44:56.721Z,16.04
2023-03-07T00:45:56.753Z,16.04
2023-03-07T00:46:56.719Z,16.04
2023-03-07T00:47:56.668Z,16.04
2023-03-07T00:48:56.673Z,16.04
2023-03-07T00:49:56.642Z,16.04
2023-03-07T00:50:56.637Z,16.04
2023-03-07T00:51:56.618Z,16.04
2023-03-07T00:52:56.614Z,16.04
2023-03-07T00:53:56.617Z,16.05
2023-03-07T00:54:56.589Z,16.04
2023-03-07T00:55:56.574Z,16.02
2023-03-07T00:56:56.568Z,16.02
2023-03-07T00:57:56.551Z,16.04
2023-03-07T00:58:56.570Z,16.05
2023-03-07T00:59:56.553Z,16.02
2023-03-07T01:00:56.581Z,16.04
2023-03-07T01:01:56.510Z,16.02
2023-03-07T01:02:57.336Z,16.02
2023-03-07T01:03:56.569Z,16.04
2023-03-07T01:04:56.515Z,16.04
2023-03-07T01:05:56.490Z,16.01
2023-03-07T01:06:56.490Z,16.02
2023-03-07T01:07:56.461Z,16.02
2023-03-07T01:08:56.442Z,16.01
2023-03-07T01:09:56.458Z,16.02
2023-03-07T01:10:56.422Z,16.01
2023-03-07T01:11:56.402Z,16.02
2023-03-07T01:12:56.398Z,16.02
2023-03-07T01:13:56.407Z,16.01
2023-03-07T01:14:56.373Z,16.01
2023-03-07T01:15:56.386Z,16.01
2023-03-07T01:16:56.600Z,16.02
2023-03-07T01:17:56.336Z,16.01
2023-03-07T01:18:56.378Z,16.02
2023-03-07T01:19:56.318Z,16.01
2023-03-07T01:20:56.309Z,16.01
2023-03-07T01:21:56.319Z,16.02
2023-03-07T01:22:56.291Z,16.02
2023-03-07T01:23:56.282Z,16.02
2023-03-07T01:24:56.286Z,16.02
2023-03-07T01:25:56.256Z,16.02
2023-03-07T01:26:56.254Z,16.01
2023-03-07T01:27:56.239Z,16.01
2023-03-07T01:28:56.221Z,16.01
2023-03-07T01:29:56.238Z,16.02
2023-03-07T01:30:56.207Z,16.01
2023-03-07T01:31:56.243Z,16.01
2023-03-07T01:32:56.179Z,16.01
2023-03-07T01:33:56.170Z,16.01
2023-03-07T01:34:56.206Z,16.01
2023-03-07T01:35:56.230Z,16.01
2023-03-07T01:36:56.226Z,16.01
2023-03-07T01:37:56.127Z,16.00
2023-03-07T01:38:56.162Z,16.01
2023-03-07T01:39:56.112Z,16.01
2023-03-07T01:40:56.100Z,16.00
2023-03-07T01:41:56.094Z,16.01
2023-03-07T01:42:56.072Z,16.00
2023-03-07T01:43:56.097Z,16.01
2023-03-07T01:44:56.050Z,16.01
2023-03-07T01:45:56.089Z,16.00
2023-03-07T01:46:56.034Z,16.02
2023-03-07T01:47:56.020Z,16.01
2023-03-07T01:48:56.011Z,16.01
2023-03-07T01:49:56.044Z,16.01
2023-03-07T01:50:56.017Z,16.01
2023-03-07T01:51:55.997Z,16.01
2023-03-07T01:52:55.965Z,16.00
2023-03-07T01:53:55.963Z,16.00
2023-03-07T01:54:55.953Z,16.00
2023-03-07T01:55:55.933Z,16.01
2023-03-07T01:56:55.973Z,16.00
2023-03-07T01:57:55.937Z,16.00
2023-03-07T01:58:55.904Z,16.01
2023-03-07T01:59:55.930Z,16.00
2023-03-07T02:00:55.982Z,16.00
2023-03-07T02:01:55.868Z,16.00
2023-03-07T02:02:55.860Z,16.00
2023-03-07T02:03:55.880Z,16.01
2023-03-07T02:04:55.865Z,16.01
2023-03-07T02:05:55.827Z,16.00
2023-03-07T02:06:55.869Z,16.00
2023-03-07T02:07:55.825Z,16.00
2023-03-07T02:08:55.796Z,16.00
2023-03-07T02:09:55.781Z,16.00
2023-03-07T02:10:55.785Z,16.00
2023-03-07T02:11:55.761Z,16.00
2023-03-07T02:12:55.779Z,16.00
2023-03-07T02:13:55.763Z,15.97
2023-03-07T02:14:55.763Z,15.97
2023-03-07T02:15:55.760Z,15.97
2023-03-07T02:16:55.715Z,15.97
2023-03-07T02:17:55.696Z,15.96
2023-03-07T02:18:55.693Z,16.00
2023-03-07T02:19:55.709Z,15.97
2023-03-07T02:20:55.663Z,16.00
2023-03-07T02:21:55.651Z,15.97
2023-03-07T02:22:55.672Z,15.97
2023-03-07T02:23:55.635Z,16.00
2023-03-07T02:24:55.645Z,16.00
2023-03-07T02:25:55.613Z,15.96
2023-03-07T02:26:55.597Z,16.00
2023-03-07T02:27:55.608Z,16.00
2023-03-07T02:28:55.586Z,16.00
2023-03-07T02:29:55.599Z,15.97
2023-03-07T02:30:55.691Z,16.00
2023-03-07T02:31:55.549Z,15.97
2023-03-07T02:32:55.540Z,15.97
2023-03-07T02:33:55.561Z,15.97
2023-03-07T02:34:55.517Z,15.97
2023-03-07T02:35:55.561Z,15.96
2023-03-07T02:36:55.496Z,16.00
2023-03-07T02:37:55.491Z,15.97
2023-03-07T02:38:55.531Z,15.97
2023-03-07T02:39:55.493Z,15.97
2023-03-07T02:40:55.465Z,16.00
2023-03-07T02:41:55.464Z,15.96
2023-03-07T02:42:55.431Z,15.97
2023-03-07T02:43:55.443Z,15.97
2023-03-07T02:44:55.410Z,15.96
2023-03-07T02:45:55.453Z,15.97
2023-03-07T02:46:55.389Z,15.97
2023-03-07T02:47:55.376Z,15.96
2023-03-07T02:48:55.388Z,15.97
2023-03-07T02:49:55.376Z,15.96
2023-03-07T02:50:55.343Z,15.96
2023-03-07T02:51:55.333Z,15.96
2023-03-07T02:52:55.322Z,15.97
2023-03-07T02:53:55.317Z,15.96
2023-03-07T02:54:55.363Z,15.96
2023-03-07T02:55:55.290Z,15.96
2023-03-07T02:56:55.280Z,15.97
2023-03-07T02:57:55.276Z,15.97
2023-03-07T02:58:55.261Z,15.96
2023-03-07T02:59:55.251Z,15.96
2023-03-07T03:00:55.261Z,15.97
2023-03-07T03:01:55.284Z,15.97
2023-03-07T03:02:55.241Z,15.96
2023-03-07T03:03:55.210Z,15.96
2023-03-07T03:04:55.246Z,15.96
2023-03-07T03:05:55.187Z,15.96
2023-03-07T03:06:55.177Z,15.96
2023-03-07T03:07:55.188Z,15.96
2023-03-07T03:08:55.165Z,15.96
2023-03-07T03:09:55.153Z,15.97
2023-03-07T03:10:55.204Z,15.97
2023-03-07T03:11:55.155Z,15.96
2023-03-07T03:12:55.117Z,15.96
2023-03-07T03:13:55.123Z,15.96
2023-03-07T03:14:55.101Z,15.94
2023-03-07T03:15:55.130Z,15.96
2023-03-07T03:16:55.085Z,15.96
2023-03-07T03:17:55.066Z,15.94
2023-03-07T03:18:55.049Z,15.94
2023-03-07T03:19:55.054Z,15.96
2023-03-07T03:20:55.059Z,15.96
2023-03-07T03:21:55.022Z,15.96
2023-03-07T03:22:55.032Z,15.96
2023-03-07T03:23:55.018Z,15.96
2023-03-07T03:24:55.007Z,15.96
2023-03-07T03:25:54.981Z,15.94
2023-03-07T03:26:54.993Z,15.96
2023-03-07T03:27:54.960Z,15.96
2023-03-07T03:28:54.975Z,15.96
2023-03-07T03:29:54.935Z,15.94
2023-03-07T03:30:54.952Z,15.94
2023-03-07T03:31:54.948Z,15.96
2023-03-07T03:32:54.905Z,15.96
2023-03-07T03:33:54.890Z,15.96
2023-03-07T03:34:54.905Z,15.94
2023-03-07T03:35:54.935Z,15.94
2023-03-07T03:36:54.865Z,15.96
2023-03-07T03:37:54.850Z,15.94
2023-03-07T03:38:54.839Z,15.94
2023-03-07T03:39:54.825Z,15.94
2023-03-07T03:40:54.848Z,15.94
2023-03-07T03:41:54.834Z,15.94
2023-03-07T03:42:54.821Z,15.94
2023-03-07T03:43:54.783Z,15.96
2023-03-07T03:44:54.783Z,15.94
2023-03-07T03:45:54.787Z,15.96
2023-03-07T03:46:54.840Z,15.94
2023-03-07T03:47:54.766Z,15.93
2023-03-07T03:48:54.760Z,15.94
2023-03-07T03:49:54.728Z,15.94
2023-03-07T03:50:54.729Z,15.94
2023-03-07T03:51:54.697Z,15.94
2023-03-07T03:52:54.706Z,15.94
2023-03-07T03:53:54.679Z,15.94
2023-03-07T03:54:54.682Z,15.94
2023-03-07T03:55:54.662Z,15.94
2023-03-07T03:56:54.684Z,15.96
2023-03-07T03:57:54.638Z,15.93
2023-03-07T03:58:54.650Z,15.93
2023-03-07T03:59:54.644Z,15.94
2023-03-07T04:00:54.601Z,15.94
2023-03-07T04:01:54.775Z,15.94
2023-03-07T04:02:54.791Z,15.92
2023-03-07T04:03:54.574Z,15.93
2023-03-07T04:04:54.559Z,15.93
2023-03-07T04:05:54.561Z,15.93
2023-03-07T04:06:54.544Z,15.93
2023-03-07T04:07:54.552Z,15.93
2023-03-07T04:08:54.521Z,15.92
2023-03-07T04:09:54.511Z,15.94
2023-03-07T04:10:54.522Z,15.92
2023-03-07T04:11:54.480Z,15.93
2023-03-07T04:12:54.499Z,15.93
2023-03-07T04:13:54.492Z,15.94
2023-03-07T04:14:54.471Z,15.94
2023-03-07T04:15:54.442Z,15.93
2023-03-07T04:16:54.432Z,15.93
2023-03-07T04:17:54.423Z,15.93
2023-03-07T04:18:54.442Z,15.94
2023-03-07T04:19:54.394Z,15.94
2023-03-07T04:20:54.417Z,15.93
2023-03-07T04:21:54.372Z,15.93
2023-03-07T04:22:54.366Z,15.92
2023-03-07T04:23:54.375Z,15.93
2023-03-07T04:24:54.340Z,15.93
2023-03-07T04:25:54.385Z,15.92
2023-03-07T04:26:54.337Z,15.93
2023-03-07T04:27:54.309Z,15.93
2023-03-07T04:28:54.321Z,15.93
2023-03-07T04:29:54.288Z,15.94
2023-03-07T04:30:54.309Z,15.93
2023-03-07T04:31:54.348Z,15.93
2023-03-07T04:32:54.254Z,15.92
2023-03-07T04:33:54.259Z,15.93
2023-03-07T04:34:54.255Z,15.93
2023-03-07T04:35:54.335Z,15.92
2023-03-07T04:36:54.240Z,15.93
2023-03-07T04:37:54.207Z,15.92
2023-03-07T04:38:54.193Z,15.93
2023-03-07T04:39:54.178Z,15.93
2023-03-07T04:40:54.180Z,15.92
2023-03-07T04:41:54.194Z,15.93
2023-03-07T04:42:54.149Z,15.92
2023-03-07T04:43:54.167Z,15.92
2023-03-07T04:44:54.125Z,15.93
2023-03-07T04:45:54.228Z,15.92
2023-03-07T04:46:54.133Z,15.93
2023-03-07T04:47:54.120Z,15.92
2023-03-07T04:48:54.082Z,15.92
2023-03-07T04:49:54.090Z,15.93
2023-03-07T04:50:54.061Z,15.92
2023-03-07T04:51:54.052Z,15.90
2023-03-07T04:52:54.068Z,15.92
2023-03-07T04:53:54.030Z,15.92
2023-03-07T04:54:54.018Z,15.93
2023-03-07T04:55:54.008Z,15.92
2023-03-07T04:56:53.997Z,15.92
2023-03-07T04:57:54.019Z,15.93
2023-03-07T04:58:53.987Z,15.92
2023-03-07T04:59:54.005Z,15.92
2023-03-07T05:00:54.062Z,15.90
2023-03-07T05:01:53.967Z,15.92
2023-03-07T05:02:54.057Z,15.92
2023-03-07T05:03:53.925Z,15.92
2023-03-07T05:04:53.910Z,15.90
2023-03-07T05:05:53.963Z,15.90
2023-03-07T05:06:53.914Z,15.90
2023-03-07T05:07:53.883Z,15.92
2023-03-07T05:08:53.907Z,15.90
2023-03-07T05:09:53.866Z,15.90
2023-03-07T05:10:53.870Z,15.90
2023-03-07T05:11:53.837Z,15.92
2023-03-07T05:12:53.839Z,15.92
2023-03-07T05:13:53.817Z,15.92
2023-03-07T05:14:53.809Z,15.90
2023-03-07T05:15:53.886Z,15.92
2023-03-07T05:16:53.809Z,15.90
2023-03-07T05:17:53.773Z,15.90
2023-03-07T05:18:53.790Z,15.92
2023-03-07T05:19:53.785Z,15.90
2023-03-07T05:20:53.771Z,15.90
2023-03-07T05:21:53.727Z,15.90
2023-03-07T05:22:53.736Z,15.90
2023-03-07T05:23:53.709Z,15.90
2023-03-07T05:24:53.702Z,15.90
2023-03-07T05:25:53.716Z,15.90
2023-03-07T05:26:53.703Z,15.90
2023-03-07T05:27:53.663Z,15.92
2023-03-07T05:28:53.653Z,15.90
2023-03-07T05:29:53.644Z,15.92
2023-03-07T05:30:53.699Z,15.90
2023-03-07T05:31:53.623Z,15.90
2023-03-07T05:32:53.641Z,15.90
2023-03-07T05:33:53.599Z,15.90
2023-03-07T05:34:53.628Z,15.90
2023-03-07T05:35:53.604Z,15.90
2023-03-07T05:36:53.569Z,15.92
2023-03-07T05:37:53.594Z,15.90
2023-03-07T05:38:53.562Z,15.90
2023-03-07T05:39:53.535Z,15.90
2023-03-07T05:40:53.576Z,15.90
2023-03-07T05:41:53.513Z,15.89
2023-03-07T05:42:53.508Z,15.90
2023-03-07T05:43:53.494Z,15.89
2023-03-07T05:44:53.515Z,15.89
2023-03-07T05:45:53.509Z,15.90
2023-03-07T05:46:53.466Z,15.92
2023-03-07T05:47:53.450Z,15.90
2023-03-07T05:48:53.486Z,15.90
2023-03-07T05:49:53.429Z,15.89
2023-03-07T05:50:53.448Z,15.90
2023-03-07T05:51:53.424Z,15.90
2023-03-07T05:52:53.421Z,15.90
2023-03-07T05:53:53.390Z,15.90
2023-03-07T05:54:53.380Z,15.90
2023-03-07T05:55:53.367Z,15.90
2023-03-07T05:56:53.395Z,15.90
2023-03-07T05:57:53.358Z,15.89
2023-03-07T05:58:53.341Z,15.90
2023-03-07T05:59:53.328Z,15.90
2023-03-07T06:00:53.346Z,15.90
2023-03-07T06:01:53.304Z,15.89
2023-03-07T06:02:53.325Z,15.89
2023-03-07T06:03:53.310Z,15.89
2023-03-07T06:04:53.269Z,15.90
2023-03-07T06:05:53.298Z,15.89
2023-03-07T06:06:53.305Z,15.90
2023-03-07T06:07:53.238Z,15.90
2023-03-07T06:08:53.227Z,15.90
2023-03-07T06:09:53.219Z,15.90
2023-03-07T06:10:53.205Z,15.89
2023-03-07T06:11:53.197Z,15.90
2023-03-07T06:12:53.214Z,15.89
2023-03-07T06:13:53.179Z,15.89
2023-03-07T06:14:53.170Z,15.89
2023-03-07T06:15:53.273Z,15.89
2023-03-07T06:16:53.141Z,15.89
2023-03-07T06:17:53.159Z,15.87
2023-03-07T06:18:53.122Z,15.89
2023-03-07T06:19:53.119Z,15.89
2023-03-07T06:20:53.100Z,15.89
2023-03-07T06:21:53.137Z,15.90
2023-03-07T06:22:53.102Z,15.87
2023-03-07T06:23:53.068Z,15.89
2023-03-07T06:24:53.059Z,15.89
2023-03-07T06:25:53.047Z,15.89
2023-03-07T06:26:53.062Z,15.89
2023-03-07T06:27:53.043Z,15.89
2023-03-07T06:28:53.019Z,15.89
2023-03-07T06:29:53.030Z,15.89
2023-03-07T06:30:53.005Z,15.89
2023-03-07T06:31:53.016Z,15.89
2023-03-07T06:32:53.019Z,15.89
2023-03-07T06:33:52.967Z,15.89
2023-03-07T06:34:53.068Z,15.89
2023-03-07T06:35:53.012Z,15.86
2023-03-07T06:36:52.980Z,15.89
2023-03-07T06:37:52.924Z,15.87
2023-03-07T06:38:52.966Z,15.89
2023-03-07T06:39:52.897Z,15.86
2023-03-07T06:40:52.891Z,15.87
2023-03-07T06:41:53.078Z,15.87
2023-03-07T06:42:52.872Z,15.87
2023-03-07T06:43:52.859Z,15.89
2023-03-07T06:44:52.852Z,15.87
2023-03-07T06:45:52.849Z,15.87
2023-03-07T06:46:52.866Z,15.87
2023-03-07T06:47:52.841Z,15.87
2023-03-07T06:48:52.809Z,15.89
2023-03-07T06:49:52.793Z,15.87
2023-03-07T06:50:52.789Z,15.89
2023-03-07T06:51:52.825Z,15.87
2023-03-07T06:52:52.763Z,15.87
2023-03-07T06:53:52.761Z,15.86
2023-03-07T06:54:52.765Z,15.89
2023-03-07T06:55:52.735Z,15.87
2023-03-07T06:56:52.747Z,15.87
2023-03-07T06:57:52.706Z,15.86
2023-03-07T06:58:52.701Z,15.87
2023-03-07T06:59:52.685Z,15.87
2023-03-07T07:00:52.676Z,15.87
2023-03-07T07:01:54.588Z,15.89
2023-03-07T07:02:52.763Z,15.87
2023-03-07T07:03:52.649Z,15.87
2023-03-07T07:04:52.633Z,15.86
2023-03-07T07:05:53.487Z,15.87
2023-03-07T07:06:52.611Z,15.87
2023-03-07T07:07:52.601Z,15.86
2023-03-07T07:08:53.408Z,15.86
2023-03-07T07:09:52.580Z,15.86
2023-03-07T07:10:53.944Z,15.86
2023-03-07T07:11:52.566Z,15.87
2023-03-07T07:12:52.549Z,15.86
2023-03-07T07:13:52.535Z,15.87
2023-03-07T07:14:52.527Z,15.87
2023-03-07T07:15:54.465Z,15.84
2023-03-07T07:16:52.560Z,15.87
2023-03-07T07:17:52.494Z,15.86
2023-03-07T07:18:52.484Z,15.87
2023-03-07T07:19:52.473Z,15.86
2023-03-07T07:20:52.462Z,15.87
2023-03-07T07:21:54.363Z,15.86
2023-03-07T07:22:52.443Z,15.86
2023-03-07T07:23:52.439Z,15.86
2023-03-07T07:24:52.419Z,15.87
2023-03-07T07:25:54.220Z,15.87
2023-03-07T07:26:52.420Z,15.86
2023-03-07T07:27:52.389Z,15.87
2023-03-07T07:28:52.376Z,15.86
2023-03-07T07:29:52.365Z,15.87
2023-03-07T07:30:53.437Z,15.87
2023-03-07T07:31:52.449Z,15.89
2023-03-07T07:32:52.431Z,15.89
2023-03-07T07:33:52.323Z,15.90
2023-03-07T07:34:54.111Z,15.90
2023-03-07T07:35:52.384Z,15.90
2023-03-07T07:36:52.517Z,15.92
2023-03-07T07:37:52.281Z,15.92
2023-03-07T07:38:52.268Z,15.92
2023-03-07T07:39:52.264Z,15.93
2023-03-07T07:40:52.248Z,15.92
2023-03-07T07:41:52.241Z,15.93
2023-03-07T07:42:53.281Z,15.92
2023-03-07T07:43:52.218Z,15.93
2023-03-07T07:44:52.208Z,15.94
2023-03-07T07:45:52.242Z,15.94
2023-03-07T07:46:52.187Z,15.96
2023-03-07T07:47:52.222Z,15.97
2023-03-07T07:48:52.175Z,15.97
2023-03-07T07:49:52.187Z,16.01
2023-03-07T07:50:52.169Z,16.04
2023-03-07T07:51:52.156Z,16.07
2023-03-07T07:52:52.128Z,16.09
2023-03-07T07:53:52.116Z,16.12
2023-03-07T07:54:52.113Z,16.17
2023-03-07T07:55:52.125Z,16.21
2023-03-07T07:56:52.123Z,16.25
2023-03-07T07:57:52.077Z,16.30
2023-03-07T07:58:52.129Z,16.33
2023-03-07T07:59:52.048Z,16.39
2023-03-07T08:00:52.080Z,16.43
2023-03-07T08:01:52.054Z,16.48
2023-03-07T08:02:52.035Z,16.52
2023-03-07T08:03:52.072Z,16.58
2023-03-07T08:04:52.004Z,16.61
2023-03-07T08:05:52.028Z,16.67
2023-03-07T08:06:54.357Z,16.71
2023-03-07T08:07:51.969Z,16.76
2023-03-07T08:08:51.968Z,16.82
2023-03-07T08:09:51.951Z,16.86
2023-03-07T08:10:54.158Z,16.93
2023-03-07T08:11:51.923Z,16.98
2023-03-07T08:12:54.069Z,17.00
2023-03-07T08:13:51.905Z,17.06
2023-03-07T08:14:51.930Z,17.11
2023-03-07T08:15:51.980Z,17.14
2023-03-07T08:16:53.615Z,17.18
2023-03-07T08:17:51.861Z,17.21
2023-03-07T08:18:51.848Z,17.22
2023-03-07T08:19:51.848Z,17.23
2023-03-07T08:20:51.827Z,17.25
2023-03-07T08:21:51.842Z,17.28
2023-03-07T08:22:51.808Z,17.30
2023-03-07T08:23:51.825Z,17.30
2023-03-07T08:24:51.783Z,17.33
2023-03-07T08:25:51.779Z,17.34
2023-03-07T08:26:51.760Z,17.34
2023-03-07T08:27:51.751Z,17.36
2023-03-07T08:28:51.764Z,17.34
2023-03-07T08:29:51.736Z,17.36
2023-03-07T08:30:51.832Z,17.36
2023-03-07T08:31:51.709Z,17.37
2023-03-07T08:32:51.706Z,17.37
2023-03-07T08:33:51.700Z,17.38
2023-03-07T08:34:51.700Z,17.38
2023-03-07T08:35:51.692Z,17.38
2023-03-07T08:36:51.655Z,17.40
2023-03-07T08:37:51.645Z,17.40
2023-03-07T08:38:51.984Z,17.40
2023-03-07T08:39:51.703Z,17.38
2023-03-07T08:40:51.610Z,17.38
2023-03-07T08:41:51.605Z,17.38
2023-03-07T08:42:51.590Z,17.38
2023-03-07T08:43:51.581Z,17.37
2023-03-07T08:44:51.630Z,17.38
2023-03-07T08:45:51.556Z,17.38
2023-03-07T08:46:51.564Z,17.36
2023-03-07T08:47:51.538Z,17.36
2023-03-07T08:48:51.519Z,17.36
2023-03-07T08:49:51.517Z,17.36
2023-03-07T08:50:55.025Z,17.36
2023-03-07T08:51:51.500Z,17.36
2023-03-07T08:52:51.485Z,17.34
2023-03-07T08:53:51.463Z,17.34
2023-03-07T08:54:51.457Z,17.34
2023-03-07T08:55:53.602Z,17.34
2023-03-07T08:56:51.432Z,17.33
2023-03-07T08:57:51.425Z,17.33
2023-03-07T08:58:51.406Z,17.31
2023-03-07T08:59:53.263Z,17.30
2023-03-07T09:00:51.391Z,17.30
2023-03-07T09:01:51.466Z,17.28
2023-03-07T09:02:51.493Z,17.26
2023-03-07T09:03:51.351Z,17.26
2023-03-07T09:04:51.506Z,17.26
2023-03-07T09:05:51.329Z,17.25
2023-03-07T09:06:51.349Z,17.25
2023-03-07T09:07:51.316Z,17.25
2023-03-07T09:08:51.297Z,17.23
2023-03-07T09:09:51.287Z,17.25
2023-03-07T09:10:51.279Z,17.23
2023-03-07T09:11:51.301Z,17.23
2023-03-07T09:12:51.261Z,17.22
2023-03-07T09:13:53.089Z,17.22
2023-03-07T09:14:51.233Z,17.22
2023-03-07T09:15:51.285Z,17.21
2023-03-07T09:16:51.212Z,17.19
2023-03-07T09:17:51.233Z,17.21
2023-03-07T09:18:51.239Z,17.19
2023-03-07T09:19:51.181Z,17.19
2023-03-07T09:20:51.202Z,17.18
2023-03-07T09:21:51.159Z,17.18
2023-03-07T09:22:51.149Z,17.16
2023-03-07T09:23:51.136Z,17.16
2023-03-07T09:24:51.126Z,17.16
2023-03-07T09:25:51.201Z,17.18
2023-03-07T09:26:51.103Z,17.15
2023-03-07T09:27:52.021Z,17.16
2023-03-07T09:28:51.090Z,17.15
2023-03-07T09:29:51.080Z,17.14
2023-03-07T09:30:51.093Z,17.14
2023-03-07T09:31:51.159Z,17.12
2023-03-07T09:32:51.038Z,17.11
2023-03-07T09:33:51.032Z,17.11
2023-03-07T09:34:51.037Z,17.08
2023-03-07T09:35:51.056Z,17.07
2023-03-07T09:36:51.021Z,17.08
2023-03-07T09:37:51.007Z,17.07
2023-03-07T09:38:51.002Z,17.08
2023-03-07T09:39:50.977Z,17.08
2023-03-07T09:40:50.951Z,17.07
2023-03-07T09:41:50.946Z,17.08
2023-03-07T09:42:50.931Z,17.08
2023-03-07T09:43:50.945Z,17.07
2023-03-07T09:44:50.911Z,17.08
2023-03-07T09:45:50.949Z,17.08
2023-03-07T09:46:50.886Z,17.08
2023-03-07T09:47:50.891Z,17.08
2023-03-07T09:48:50.888Z,17.08
2023-03-07T09:49:50.861Z,17.07
2023-03-07T09:50:50.949Z,17.08
2023-03-07T09:51:50.830Z,17.08
2023-03-07T09:52:50.857Z,17.11
2023-03-07T09:53:50.833Z,17.08
2023-03-07T09:54:50.823Z,17.08
2023-03-07T09:55:50.812Z,17.08
2023-03-07T09:56:50.788Z,17.11
2023-03-07T09:57:50.811Z,17.11
2023-03-07T09:58:50.759Z,17.11
2023-03-07T09:59:51.473Z,17.11
2023-03-07T10:00:50.738Z,17.11
2023-03-07T10:01:50.732Z,17.12
2023-03-07T10:02:50.718Z,17.12
2023-03-07T10:03:50.896Z,17.12
2023-03-07T10:04:50.700Z,17.12
2023-03-07T10:05:50.697Z,17.12
2023-03-07T10:06:50.699Z,17.12
2023-03-07T10:07:50.663Z,17.11
2023-03-07T10:08:50.684Z,17.12
2023-03-07T10:09:50.637Z,17.14
2023-03-07T10:10:50.635Z,17.14
2023-03-07T10:11:50.701Z,17.14
2023-03-07T10:12:50.612Z,17.14
2023-03-07T10:13:50.730Z,17.15
2023-03-07T10:14:50.590Z,17.15
2023-03-07T10:15:50.644Z,17.15
2023-03-07T10:16:50.647Z,17.15
2023-03-07T10:17:50.555Z,17.15
2023-03-07T10:18:51.832Z,17.16
2023-03-07T10:19:51.529Z,17.16
2023-03-07T10:20:50.523Z,17.15
2023-03-07T10:21:50.523Z,17.16
2023-03-07T10:22:50.527Z,17.16
2023-03-07T10:23:50.489Z,17.15
2023-03-07T10:24:52.079Z,17.16
2023-03-07T10:25:50.473Z,17.18
2023-03-07T10:26:50.464Z,17.16
2023-03-07T10:27:50.444Z,17.18
2023-03-07T10:28:50.434Z,17.18
2023-03-07T10:29:52.317Z,17.19
2023-03-07T10:30:50.415Z,17.19
2023-03-07T10:31:50.439Z,17.19
2023-03-07T10:32:50.405Z,17.19
2023-03-07T10:33:50.376Z,17.21
2023-03-07T10:34:51.805Z,17.22
2023-03-07T10:35:52.183Z,17.22
2023-03-07T10:37:00.120Z,17.23
2023-03-07T10:37:51.333Z,17.23
2023-03-07T10:38:50.350Z,17.25
2023-03-07T10:39:52.183Z,17.25
2023-03-07T10:40:50.296Z,17.25
2023-03-07T10:41:50.290Z,17.26
2023-03-07T10:42:50.280Z,17.26
2023-03-07T10:43:50.265Z,17.28
2023-03-07T10:44:52.588Z,17.30
2023-03-07T10:45:52.621Z,17.30
2023-03-07T10:46:56.116Z,17.30
2023-03-07T10:47:51.226Z,17.31
2023-03-07T10:48:50.209Z,17.31
2023-03-07T10:49:50.208Z,17.31
2023-03-07T10:50:50.186Z,17.33
2023-03-07T10:51:52.198Z,17.33
2023-03-07T10:52:50.175Z,17.33
2023-03-07T10:53:50.154Z,17.34
2023-03-07T10:54:51.564Z,17.33
2023-03-07T10:55:50.146Z,17.34
2023-03-07T10:56:50.125Z,17.33
2023-03-07T10:57:51.136Z,17.34
2023-03-07T10:58:50.106Z,17.34
2023-03-07T10:59:50.101Z,17.33
2023-03-07T11:00:50.076Z,17.36
2023-03-07T11:01:51.900Z,17.36
2023-03-07T11:02:50.054Z,17.34
2023-03-07T11:03:54.134Z,17.34
2023-03-07T11:04:51.074Z,17.33
2023-03-07T11:05:50.024Z,17.34
2023-03-07T11:06:51.588Z,17.34
2023-03-07T11:07:50.003Z,17.33
2023-03-07T11:08:49.993Z,17.33
2023-03-07T11:09:49.988Z,17.33
2023-03-07T11:10:49.993Z,17.33
2023-03-07T11:11:49.985Z,17.33
2023-03-07T11:12:49.950Z,17.31
2023-03-07T11:13:49.942Z,17.33
2023-03-07T11:14:49.924Z,17.31
2023-03-07T11:15:50.245Z,17.33
2023-03-07T11:16:49.926Z,17.31
2023-03-07T11:17:49.915Z,17.31
2023-03-07T11:18:49.879Z,17.30
2023-03-07T11:19:49.871Z,17.31
2023-03-07T11:20:49.872Z,17.31
2023-03-07T11:21:49.851Z,17.31
2023-03-07T11:22:49.866Z,17.33
2023-03-07T11:23:49.857Z,17.31
2023-03-07T11:24:49.819Z,17.31
2023-03-07T11:25:49.804Z,17.31
2023-03-07T11:26:49.880Z,17.33
2023-03-07T11:27:49.814Z,17.31
2023-03-07T11:28:49.779Z,17.31
2023-03-07T11:29:49.763Z,17.31
2023-03-07T11:30:49.780Z,17.31
2023-03-07T11:31:49.741Z,17.30
2023-03-07T11:32:49.912Z,17.30
2023-03-07T11:33:59.019Z,17.33
2023-03-07T11:34:50.717Z,17.31
2023-03-07T11:35:49.734Z,17.33
2023-03-07T11:36:49.705Z,17.34
2023-03-07T11:37:49.674Z,17.33
2023-03-07T11:38:51.751Z,17.33
2023-03-07T11:39:49.656Z,17.34
2023-03-07T11:40:49.675Z,17.34
2023-03-07T11:41:49.639Z,17.36
2023-03-07T11:42:49.660Z,17.36
2023-03-07T11:43:51.257Z,17.37
2023-03-07T11:44:49.600Z,17.38
2023-03-07T11:45:49.602Z,17.38
2023-03-07T11:46:49.659Z,17.38
2023-03-07T11:47:49.570Z,17.38
2023-03-07T11:48:49.557Z,17.38
2023-03-07T11:49:49.575Z,17.38
2023-03-07T11:50:49.537Z,17.38
2023-03-07T11:51:49.535Z,17.38
2023-03-07T11:52:49.518Z,17.38
2023-03-07T11:53:49.512Z,17.40
2023-03-07T11:54:49.494Z,17.38
2023-03-07T11:55:49.514Z,17.38
2023-03-07T11:56:49.477Z,17.38
2023-03-07T11:57:49.464Z,17.38
2023-03-07T11:58:49.488Z,17.38
2023-03-07T11:59:49.442Z,17.38
2023-03-07T12:00:49.690Z,17.38
2023-03-07T12:01:49.422Z,17.37
2023-03-07T12:02:49.476Z,17.37
2023-03-07T12:03:49.427Z,17.37
2023-03-07T12:04:49.442Z,17.37
2023-03-07T12:05:49.456Z,17.37
2023-03-07T12:06:49.419Z,17.36
2023-03-07T12:07:49.382Z,17.36
2023-03-07T12:08:49.384Z,17.36
2023-03-07T12:09:49.349Z,17.34
2023-03-07T12:10:49.325Z,17.36
2023-03-07T12:11:49.314Z,17.34
2023-03-07T12:12:49.305Z,17.36
2023-03-07T12:13:51.712Z,17.36
2023-03-07T12:14:49.282Z,17.36
2023-03-07T12:15:49.312Z,17.34
2023-03-07T12:16:49.276Z,17.34
2023-03-07T12:17:49.252Z,17.36
2023-03-07T12:18:51.001Z,17.34
2023-03-07T12:19:49.231Z,17.37
2023-03-07T12:20:49.216Z,17.40
2023-03-07T12:21:49.216Z,17.46
2023-03-07T12:22:49.198Z,17.48
2023-03-07T12:23:50.977Z,17.48
2023-03-07T12:24:49.178Z,17.51
2023-03-07T12:25:49.163Z,17.51
2023-03-07T12:26:49.157Z,17.49
2023-03-07T12:27:49.176Z,17.49
2023-03-07T12:28:49.137Z,17.49
2023-03-07T12:29:49.150Z,17.51
2023-03-07T12:30:49.119Z,17.49
2023-03-07T12:31:49.178Z,17.49
2023-03-07T12:32:50.891Z,17.48
2023-03-07T12:33:49.078Z,17.48
2023-03-07T12:34:49.069Z,17.48
2023-03-07T12:35:49.139Z,17.46
2023-03-07T12:36:51.308Z,17.44
2023-03-07T12:37:50.678Z,17.46
2023-03-07T12:38:49.026Z,17.46
2023-03-07T12:39:49.012Z,17.44
2023-03-07T12:40:49.015Z,17.44
2023-03-07T12:41:48.992Z,17.44
2023-03-07T12:42:50.340Z,17.43
2023-03-07T12:43:50.410Z,17.44
2023-03-07T12:44:48.960Z,17.43
2023-03-07T12:45:49.286Z,17.43
2023-03-07T12:46:48.939Z,17.43
2023-03-07T12:47:48.928Z,17.41
2023-03-07T12:48:50.493Z,17.43
2023-03-07T12:49:50.212Z,17.43
2023-03-07T12:50:48.896Z,17.41
2023-03-07T12:51:48.895Z,17.41
2023-03-07T12:52:49.096Z,17.43